Strona główna
METAR-TAF:

METAR-TAF

Lotnisko :

Port lotniczy Antananarywa

Antananarywa, Madagaskar

Szerokość geograficzna: 18-48S, Długość geograficzna: 047-29E, wysokość: 1279 m

Aktualna obserwacja pogody

Raport powstał 34 minut temu, godzina 09:00 UTC
Wiatr 11 kt od wschodnio-południowy wschód, zmienny między wschód i południe
Temperatura 21°C
Wilgotność 60%
Ciśnienie 1025 hPa
Widzialność 10 km lub więcej
Rozproszone chmury na wysokości 2000 ft
Przerywane chmury na wysokości 2300 ft

METAR: FMMI 040900Z 12011KT 100V180 9999 SCT020 BKN023 21/13 Q1025 NOSIG

czas: 12:34 (09:34 UTC)

Prognoza

Raport powstał 4 godziny i 34 minut temu, godzina 05:00 UTC
Prognoza ważna od 04 godzina 06 UTC do 05 godzina 12 UTC
Wiatr 8 kt od wschodnio-południowy wschód
Widzialność 10 km lub więcej
Przerywane chmury na wysokości 2000 ft

TAF: FMMI 040500Z 0406/0512 12008KT 9999 BKN020

Obserwacja i prognoza pogody dla ponad 4000 lotnisk (raport METAR i TAF).

Dostępne stacje oznaczono żółtymi i czerwonymi punktami na mapie.

Najedź kursorem aby zobaczyć nazwę stacji.

Kliknij aby zobaczyć obserwacje i prognozy pogody.

Aby zmienić mapę: kliknij na zielony przycisk z czarnym krzyżykiem, aby powiększyć; na zielony przycisk z myślnikiem, aby pomniejszyć; na zielone strzałki, aby przejść do map sąsiednich.


METAR-TAF: